Time;durP1;ratioP1;P1;durP2;ratioP2;P2;SDS_P1;SDS_P2;PMS_P1;PMS_P2;Temp;Humidity;BMP_temperature;BMP_pressure;BME280_temperature;BME280_humidity;BME280_pressure;Samples;Min_cycle;Max_cycle;Signal;HPM_P1;HPM_P2
2023/05/25 00:01:06;;;;;;;;;;;;;;;22.00;46.20;100700.66;103289;1286;60957;-84
2023/05/25 00:03:32;;;;;;;;;;;;;;;22.00;46.14;100702.98;103683;1290;60584;-83
2023/05/25 00:06:00;;;;;;;;;;;;;;;21.99;46.31;100706.23;103578;1286;60721;-83
2023/05/25 00:08:25;;;;;;;;;;;;;;;21.99;46.38;100701.61;103600;1292;60589;-84
2023/05/25 00:10:51;;;;;;;;;;;;;;;21.99;46.21;100697.85;103421;1292;60674;-84
2023/05/25 00:13:16;;;;;;;;;;;;;;;21.99;46.27;100698.95;103438;1294;61784;-83
2023/05/25 00:15:42;;;;;;;;;;;;;;;21.98;46.22;100699.31;103398;1287;60808;-83
2023/05/25 00:18:07;;;;;;;;;;;;;;;21.98;46.23;100697.73;103463;1286;60664;-83
2023/05/25 00:20:35;;;;;;;;;;;;;;;21.98;46.21;100695.94;103643;1287;60569;-83
2023/05/25 00:23:01;;;;;;;;;;;;;;;21.98;46.36;100696.86;103534;1287;60597;-83
2023/05/25 00:25:27;;;;;;;;;;;;;;;21.98;46.17;100700.41;103497;1292;60561;-83
2023/05/25 00:27:52;;;;;;;;;;;;;;;21.98;46.29;100693.30;103385;1293;60505;-84
2023/05/25 00:30:18;;;;;;;;;;;;;;;21.97;46.35;100694.02;103361;1287;61716;-83
2023/05/25 00:32:45;;;;;;;;;;;;;;;21.97;46.22;100689.19;103460;1292;61092;-84
2023/05/25 00:35:11;;;;;;;;;;;;;;;21.97;46.46;100691.17;103527;1286;73745;-84
2023/05/25 00:37:36;;;;;;;;;;;;;;;21.97;46.30;100693.35;103443;1295;61093;-82
2023/05/25 00:40:03;;;;;;;;;;;;;;;21.97;46.36;100692.05;103294;1293;60622;-83
2023/05/25 00:42:29;;;;;;;;;;;;;;;21.97;46.34;100693.71;103675;1286;60703;-82
2023/05/25 00:44:55;;;;;;;;;;;;;;;21.97;46.33;100700.02;103375;1293;60523;-83
2023/05/25 00:47:20;;;;;;;;;;;;;;;21.96;46.29;100707.71;103259;1295;60566;-85
2023/05/25 00:49:46;;;;;;;;;;;;;;;21.96;46.32;100705.75;103493;1292;60743;-84
2023/05/25 00:52:11;;;;;;;;;;;;;;;21.96;46.19;100699.66;103280;1294;60424;-83
2023/05/25 00:54:37;;;;;;;;;;;;;;;21.97;46.20;100698.56;103437;1295;60606;-82
2023/05/25 00:57:03;;;;;;;;;;;;;;;21.96;46.28;100695.23;103458;1287;60606;-83
2023/05/25 00:59:35;;;;;;;;;;;;;;;21.96;46.32;100698.48;103444;1292;60581;-83
2023/05/25 01:02:03;;;;;;;;;;;;;;;21.96;46.39;100705.42;103601;1291;61378;-84
2023/05/25 01:04:29;;;;;;;;;;;;;;;21.96;46.35;100700.42;103466;1292;73464;-83
2023/05/25 01:06:56;;;;;;;;;;;;;;;21.96;46.30;100700.80;103563;1291;60577;-84
2023/05/25 01:09:22;;;;;;;;;;;;;;;21.96;46.38;100702.59;103616;1287;60461;-83
2023/05/25 01:11:48;;;;;;;;;;;;;;;21.96;46.45;100700.80;103463;1292;60597;-83
2023/05/25 01:14:14;;;;;;;;;;;;;;;21.95;46.29;100703.50;103309;1295;60628;-83
2023/05/25 01:16:40;;;;;;;;;;;;;;;21.95;46.46;100707.99;103395;1287;60518;-83
2023/05/25 01:19:05;;;;;;;;;;;;;;;21.95;46.45;100707.08;103457;1286;60648;-84
2023/05/25 01:21:32;;;;;;;;;;;;;;;21.95;46.42;100709.24;103419;1301;60615;-83
2023/05/25 01:24:02;;;;;;;;;;;;;;;21.95;46.48;100710.14;103607;1291;60990;-84
2023/05/25 01:26:28;;;;;;;;;;;;;;;21.95;46.55;100712.13;103638;1291;73175;-83
2023/05/25 01:28:54;;;;;;;;;;;;;;;21.95;46.40;100711.94;103281;1293;60875;-84
2023/05/25 01:31:21;;;;;;;;;;;;;;;21.95;46.53;100709.10;103579;1286;60573;-84
2023/05/25 01:33:47;;;;;;;;;;;;;;;21.95;46.43;100709.63;103381;1286;61018;-84
2023/05/25 01:36:13;;;;;;;;;;;;;;;21.95;46.44;100712.48;103425;1295;60702;-84
2023/05/25 01:38:39;;;;;;;;;;;;;;;21.95;46.47;100706.43;103484;1287;60562;-84
2023/05/25 01:41:05;;;;;;;;;;;;;;;21.94;46.46;100700.88;103441;1292;60590;-83
2023/05/25 01:43:30;;;;;;;;;;;;;;;21.94;46.42;100700.70;103445;1292;60633;-83
2023/05/25 01:46:34;;;;;;;;;;;;;;;21.93;46.47;100695.55;103442;1286;61012;-84
2023/05/25 01:49:20;;;;;;;;;;;;;;;21.94;46.40;100697.14;102935;1295;73974;-83
2023/05/25 01:51:58;;;;;;;;;;;;;;;21.93;46.38;100696.26;102915;1298;60649;-83
2023/05/25 01:54:25;;;;;;;;;;;;;;;21.94;46.46;100699.99;102892;1297;61180;-83
2023/05/25 01:56:51;;;;;;;;;;;;;;;21.94;46.47;100698.41;102856;1296;72300;-83
2023/05/25 01:59:18;;;;;;;;;;;;;;;21.94;46.47;100698.75;102841;1298;61837;-83
2023/05/25 02:01:44;;;;;;;;;;;;;;;21.93;46.49;100704.52;102906;1298;60562;-83
2023/05/25 02:04:09;;;;;;;;;;;;;;;21.94;46.57;100706.98;102800;1298;60667;-82
2023/05/25 02:06:36;;;;;;;;;;;;;;;21.93;46.62;100706.67;102856;1296;60595;-83
2023/05/25 02:09:01;;;;;;;;;;;;;;;21.93;46.57;100709.73;102845;1299;61052;-83
2023/05/25 02:11:27;;;;;;;;;;;;;;;21.93;46.63;100709.74;102814;1298;60597;-82
2023/05/25 02:13:52;;;;;;;;;;;;;;;21.93;46.54;100713.14;102945;1298;60700;-84
2023/05/25 02:16:18;;;;;;;;;;;;;;;21.93;46.56;100714.93;102795;1299;60847;-82
2023/05/25 02:18:44;;;;;;;;;;;;;;;21.93;46.55;100710.63;102788;1298;60760;-84
2023/05/25 02:21:10;;;;;;;;;;;;;;;21.93;46.56;100711.88;102647;1303;60699;-83
2023/05/25 02:23:36;;;;;;;;;;;;;;;21.92;46.52;100712.82;102839;1299;60569;-83
2023/05/25 02:26:01;;;;;;;;;;;;;;;21.92;46.56;100711.77;102993;1297;60606;-84
2023/05/25 02:28:27;;;;;;;;;;;;;;;21.92;46.53;100718.39;103065;1298;60584;-83
2023/05/25 02:30:53;;;;;;;;;;;;;;;21.92;46.74;100720.70;103003;1299;73378;-83
2023/05/25 02:33:19;;;;;;;;;;;;;;;21.92;46.73;100720.36;103110;1299;60597;-84
2023/05/25 02:35:44;;;;;;;;;;;;;;;21.92;46.69;100717.66;103078;1296;60956;-84
2023/05/25 02:38:10;;;;;;;;;;;;;;;21.92;46.62;100718.41;102985;1298;60786;-83
2023/05/25 02:40:35;;;;;;;;;;;;;;;21.92;46.67;100720.02;102999;1292;61975;-84
2023/05/25 02:43:01;;;;;;;;;;;;;;;21.92;46.58;100723.59;103008;1293;72465;-84
2023/05/25 02:45:27;;;;;;;;;;;;;;;21.92;46.60;100726.84;103018;1298;60692;-84
2023/05/25 02:47:52;;;;;;;;;;;;;;;21.92;46.59;100728.60;103038;1293;60582;-83
2023/05/25 02:50:18;;;;;;;;;;;;;;;21.92;46.60;100733.66;102951;1298;60552;-84
2023/05/25 02:52:45;;;;;;;;;;;;;;;21.92;46.62;100737.05;103308;1292;60804;-83
2023/05/25 02:55:14;;;;;;;;;;;;;;;21.92;46.67;100735.95;103495;1292;60522;-83
2023/05/25 02:57:40;;;;;;;;;;;;;;;21.92;46.61;100731.68;103440;1292;60552;-84
2023/05/25 03:00:06;;;;;;;;;;;;;;;21.92;46.61;100737.79;103423;1290;60686;-83
2023/05/25 03:02:32;;;;;;;;;;;;;;;21.92;46.70;100740.31;103470;1287;60986;-83
2023/05/25 03:04:58;;;;;;;;;;;;;;;21.92;46.75;100742.63;103463;1294;60669;-83
2023/05/25 03:07:26;;;;;;;;;;;;;;;21.92;46.65;100742.80;103532;1293;60582;-83
2023/05/25 03:09:52;;;;;;;;;;;;;;;21.92;46.71;100742.27;103418;1292;61715;-83
2023/05/25 03:12:18;;;;;;;;;;;;;;;21.92;46.67;100746.37;103493;1295;60560;-84
2023/05/25 03:14:44;;;;;;;;;;;;;;;21.92;46.65;100744.58;103423;1293;60508;-83
2023/05/25 03:17:10;;;;;;;;;;;;;;;21.91;46.66;100742.83;103590;1292;60606;-83
2023/05/25 03:19:35;;;;;;;;;;;;;;;21.92;46.81;100744.20;103474;1293;60644;-82
2023/05/25 03:22:01;;;;;;;;;;;;;;;21.92;46.84;100745.99;103733;1292;60577;-82
2023/05/25 03:24:27;;;;;;;;;;;;;;;21.92;46.68;100748.66;103292;1291;74457;-83
2023/05/25 03:26:53;;;;;;;;;;;;;;;21.92;46.64;100747.24;103460;1292;60600;-84
2023/05/25 03:29:19;;;;;;;;;;;;;;;21.92;46.75;100751.55;103530;1286;60530;-84
2023/05/25 03:31:44;;;;;;;;;;;;;;;21.93;46.82;100754.22;103458;1293;60964;-84
2023/05/25 03:34:10;;;;;;;;;;;;;;;21.92;46.80;100755.48;103291;1286;61736;-83
2023/05/25 03:36:37;;;;;;;;;;;;;;;21.93;46.78;100758.67;103454;1296;60548;-84
2023/05/25 03:39:03;;;;;;;;;;;;;;;21.93;46.78;100759.60;103477;1287;74477;-84
2023/05/25 03:41:29;;;;;;;;;;;;;;;21.93;46.81;100759.23;103620;1292;61760;-84
2023/05/25 03:43:54;;;;;;;;;;;;;;;21.93;46.78;100759.92;103462;1286;60484;-83
2023/05/25 03:46:20;;;;;;;;;;;;;;;21.93;46.71;100761.33;103470;1289;60526;-83
2023/05/25 03:48:45;;;;;;;;;;;;;;;21.93;46.82;100766.89;103430;1292;61099;-84
2023/05/25 03:51:11;;;;;;;;;;;;;;;21.93;46.84;100766.89;103438;1287;60571;-84
2023/05/25 03:53:36;;;;;;;;;;;;;;;21.93;46.81;100768.54;103441;1287;60664;-82
2023/05/25 03:56:02;;;;;;;;;;;;;;;21.93;46.88;100778.88;103674;1292;60593;-83
2023/05/25 03:58:27;;;;;;;;;;;;;;;21.93;46.87;100779.45;103491;1292;60690;-83
2023/05/25 04:00:55;;;;;;;;;;;;;;;21.93;46.74;100775.84;103119;1292;61791;-84
2023/05/25 04:03:21;;;;;;;;;;;;;;;21.93;46.76;100781.58;103235;1292;60549;-83
2023/05/25 04:05:46;;;;;;;;;;;;;;;21.94;46.84;100779.38;103241;1297;60657;-83
2023/05/25 04:08:21;;;;;;;;;;;;;;;21.94;46.80;100785.65;103455;1292;60709;-83
2023/05/25 04:10:46;;;;;;;;;;;;;;;21.95;46.88;100789.39;102980;1297;72497;-83
2023/05/25 04:13:13;;;;;;;;;;;;;;;21.95;46.74;100793.13;103081;1298;60670;-83
2023/05/25 04:15:38;;;;;;;;;;;;;;;21.96;46.75;100797.20;103090;1295;60728;-83
2023/05/25 04:18:04;;;;;;;;;;;;;;;21.96;46.85;100801.48;103107;1298;60785;-83
2023/05/25 04:20:29;;;;;;;;;;;;;;;21.96;46.82;100803.46;103029;1295;60648;-83
2023/05/25 04:22:55;;;;;;;;;;;;;;;21.96;46.78;100806.10;103129;1292;60714;-83
2023/05/25 04:25:20;;;;;;;;;;;;;;;21.96;46.86;100804.88;103104;1292;73861;-84
2023/05/25 04:27:46;;;;;;;;;;;;;;;21.96;46.75;100807.21;103131;1293;60765;-83
2023/05/25 04:30:12;;;;;;;;;;;;;;;21.96;46.76;100809.33;103071;1292;60661;-83
2023/05/25 04:32:38;;;;;;;;;;;;;;;21.97;46.86;100806.79;103297;1292;61695;-83
2023/05/25 04:35:04;;;;;;;;;;;;;;;21.97;46.71;100811.61;103497;1292;60640;-83
2023/05/25 04:37:31;;;;;;;;;;;;;;;21.97;46.81;100812.88;103514;1286;61027;-83
2023/05/25 04:39:57;;;;;;;;;;;;;;;21.97;46.82;100819.28;103502;1292;61143;-83
2023/05/25 04:42:22;;;;;;;;;;;;;;;21.97;46.78;100822.16;103529;1286;60556;-83
2023/05/25 04:44:49;;;;;;;;;;;;;;;21.98;46.75;100821.60;103402;1292;60610;-83
2023/05/25 04:47:15;;;;;;;;;;;;;;;21.98;46.71;100821.58;103443;1292;60600;-84
2023/05/25 04:49:41;;;;;;;;;;;;;;;21.99;46.68;100823.13;103372;1294;61044;-82
2023/05/25 04:52:06;;;;;;;;;;;;;;;21.99;46.65;100826.86;103302;1292;61503;-84
2023/05/25 04:54:33;;;;;;;;;;;;;;;21.99;46.65;100828.08;103404;1286;60638;-84
2023/05/25 04:56:58;;;;;;;;;;;;;;;22.00;46.63;100828.77;103351;1293;60572;-84
2023/05/25 04:59:24;;;;;;;;;;;;;;;22.01;46.56;100833.17;103529;1292;73053;-83
2023/05/25 05:01:50;;;;;;;;;;;;;;;22.01;46.58;100833.33;103666;1286;60642;-83
2023/05/25 05:04:16;;;;;;;;;;;;;;;22.02;46.55;100833.63;103571;1287;60587;-83
2023/05/25 05:06:42;;;;;;;;;;;;;;;22.02;46.45;100840.04;103435;1291;60566;-83
2023/05/25 05:09:07;;;;;;;;;;;;;;;22.03;46.46;100841.77;103454;1293;61177;-82
2023/05/25 05:11:33;;;;;;;;;;;;;;;22.04;46.50;100842.83;103575;1291;60619;-84
2023/05/25 05:13:58;;;;;;;;;;;;;;;22.04;46.32;100844.39;103787;1286;61211;-83
2023/05/25 05:16:24;;;;;;;;;;;;;;;22.05;46.52;100846.48;103555;1295;60584;-82
2023/05/25 05:18:49;;;;;;;;;;;;;;;22.05;46.39;100847.88;103629;1286;60615;-83
2023/05/25 05:21:15;;;;;;;;;;;;;;;22.05;46.42;100850.55;103497;1292;60584;-83
2023/05/25 05:23:43;;;;;;;;;;;;;;;22.05;46.43;100850.19;103328;1289;61047;-84
2023/05/25 05:26:10;;;;;;;;;;;;;;;22.06;46.44;100855.92;103668;1289;60593;-83
2023/05/25 05:28:36;;;;;;;;;;;;;;;22.06;46.36;100858.41;103335;1289;60585;-83
2023/05/25 05:31:01;;;;;;;;;;;;;;;22.06;46.30;100862.54;103623;1289;60513;-83
2023/05/25 05:33:27;;;;;;;;;;;;;;;22.06;46.40;100861.48;103421;1289;60699;-82
2023/05/25 05:35:53;;;;;;;;;;;;;;;22.05;46.33;100867.23;103428;1292;60584;-84
2023/05/25 05:38:19;;;;;;;;;;;;;;;22.05;46.35;100869.73;103552;1287;61244;-83
2023/05/25 05:40:46;;;;;;;;;;;;;;;22.05;46.25;100870.44;103493;1286;60449;-82
2023/05/25 05:43:12;;;;;;;;;;;;;;;22.08;46.26;100867.77;103482;1292;73547;-82
2023/05/25 05:45:37;;;;;;;;;;;;;;;22.09;46.19;100866.09;103683;1289;60664;-81
2023/05/25 05:48:03;;;;;;;;;;;;;;;22.11;46.20;100865.40;103631;1286;60645;-83
2023/05/25 05:50:29;;;;;;;;;;;;;;;22.12;46.13;100867.48;103352;1289;60459;-83
2023/05/25 05:52:54;;;;;;;;;;;;;;;22.12;46.10;100869.77;103523;1295;60663;-84
2023/05/25 05:55:20;;;;;;;;;;;;;;;22.12;45.99;100868.89;103487;1289;60538;-84
2023/05/25 05:57:47;;;;;;;;;;;;;;;22.13;45.98;100874.07;103541;1287;60647;-83
2023/05/25 06:00:13;;;;;;;;;;;;;;;22.13;45.86;100866.86;103484;1287;60487;-83
2023/05/25 06:02:39;;;;;;;;;;;;;;;22.13;45.89;100870.97;103682;1290;60658;-83
2023/05/25 06:05:05;;;;;;;;;;;;;;;22.14;45.97;100869.47;103601;1286;61602;-83
2023/05/25 06:07:33;;;;;;;;;;;;;;;22.15;45.82;100872.61;103343;1295;62115;-83
2023/05/25 06:09:59;;;;;;;;;;;;;;;22.16;45.77;100876.54;103224;1292;61307;-82
2023/05/25 06:12:25;;;;;;;;;;;;;;;22.16;45.84;100871.80;103109;1292;60589;-84
2023/05/25 06:14:51;;;;;;;;;;;;;;;22.16;45.87;100872.33;103140;1294;61899;-83
2023/05/25 06:17:18;;;;;;;;;;;;;;;22.16;45.75;100876.29;103194;1295;60712;-83
2023/05/25 06:19:43;;;;;;;;;;;;;;;22.16;45.85;100877.91;103297;1292;60668;-83
2023/05/25 06:22:09;;;;;;;;;;;;;;;22.16;45.77;100878.83;103033;1297;60702;-83
2023/05/25 06:24:34;;;;;;;;;;;;;;;22.16;45.80;100880.83;103249;1296;60533;-84
2023/05/25 06:27:02;;;;;;;;;;;;;;;22.16;45.75;100876.69;102976;1292;73709;-84
2023/05/25 06:29:28;;;;;;;;;;;;;;;22.17;45.71;100876.64;103110;1292;60520;-84
2023/05/25 06:31:53;;;;;;;;;;;;;;;22.17;45.63;100878.02;103112;1297;60771;-83
2023/05/25 06:34:19;;;;;;;;;;;;;;;22.17;45.68;100878.57;103065;1292;60967;-83
2023/05/25 06:36:45;;;;;;;;;;;;;;;22.17;45.73;100884.66;103423;1293;60667;-84
2023/05/25 06:39:11;;;;;;;;;;;;;;;22.18;45.61;100887.32;103215;1289;60739;-83
2023/05/25 06:41:39;;;;;;;;;;;;;;;22.17;45.78;100884.99;103580;1288;60600;-83
2023/05/25 06:44:06;;;;;;;;;;;;;;;22.17;45.79;100884.09;103513;1292;60502;-83
2023/05/25 06:46:31;;;;;;;;;;;;;;;22.18;45.74;100888.55;103305;1290;61766;-84
2023/05/25 06:49:00;;;;;;;;;;;;;;;22.19;45.63;100889.92;103554;1286;61270;-84
2023/05/25 06:51:26;;;;;;;;;;;;;;;22.18;45.77;100890.48;103620;1292;60591;-82
2023/05/25 06:53:53;;;;;;;;;;;;;;;22.19;45.65;100895.47;103638;1292;60565;-83
2023/05/25 06:56:19;;;;;;;;;;;;;;;22.19;45.73;100898.66;103357;1294;60635;-83
2023/05/25 06:58:45;;;;;;;;;;;;;;;22.20;45.64;100899.51;103691;1289;61217;-83
2023/05/25 07:01:10;;;;;;;;;;;;;;;22.20;45.76;100898.26;103674;1286;60517;-83
2023/05/25 07:03:37;;;;;;;;;;;;;;;22.20;45.64;100894.64;103625;1289;61516;-83
2023/05/25 07:06:03;;;;;;;;;;;;;;;22.21;45.71;100898.16;103783;1288;60651;-83
2023/05/25 07:08:28;;;;;;;;;;;;;;;22.21;45.74;100896.36;104355;1288;715189;-83
2023/05/25 07:10:54;;;;;;;;;;;;;;;22.21;45.88;100901.89;103653;1292;73950;-83
2023/05/25 07:13:20;;;;;;;;;;;;;;;22.22;45.71;100907.73;103834;1289;61771;-83
2023/05/25 07:15:45;;;;;;;;;;;;;;;22.22;45.77;100907.36;103740;1289;60616;-84
2023/05/25 07:18:11;;;;;;;;;;;;;;;22.22;45.70;100905.58;103720;1292;61679;-83
2023/05/25 07:20:40;;;;;;;;;;;;;;;22.24;45.87;100906.91;103616;1289;60660;-84
2023/05/25 07:23:10;;;;;;;;;;;;;;;22.24;45.69;100903.13;103711;1289;60584;-83
2023/05/25 07:25:39;;;;;;;;;;;;;;;22.24;45.62;100905.95;103933;1288;60575;-83
2023/05/25 07:28:05;;;;;;;;;;;;;;;22.24;45.80;100906.66;103507;1292;73531;-83
2023/05/25 07:30:30;;;;;;;;;;;;;;;22.25;45.73;100909.67;103635;1292;60664;-83
2023/05/25 07:32:57;;;;;;;;;;;;;;;22.25;45.81;100907.72;103546;1289;60497;-82
2023/05/25 07:35:23;;;;;;;;;;;;;;;22.25;45.64;100906.82;103730;1286;60557;-82
2023/05/25 07:37:59;;;;;;;;;;;;;;;22.25;45.67;100914.20;103925;1289;60661;-82
2023/05/25 07:40:24;;;;;;;;;;;;;;;22.25;45.56;100917.05;104124;1291;74346;-82
2023/05/25 07:42:50;;;;;;;;;;;;;;;22.24;45.78;100919.40;103833;1287;60584;-82
2023/05/25 07:45:16;;;;;;;;;;;;;;;22.25;45.73;100920.29;104005;1290;60572;-82
2023/05/25 07:47:41;;;;;;;;;;;;;;;22.24;45.85;100917.27;104021;1286;60571;-81
2023/05/25 07:50:07;;;;;;;;;;;;;;;22.24;45.82;100915.30;104130;1288;60558;-82
2023/05/25 07:52:32;;;;;;;;;;;;;;;22.24;45.83;100913.50;104477;1286;60558;-83
2023/05/25 07:54:58;;;;;;;;;;;;;;;22.25;45.81;100915.45;104361;1286;60514;-83
2023/05/25 07:57:24;;;;;;;;;;;;;;;22.26;45.72;100912.64;104215;1286;60583;-83
2023/05/25 07:59:49;;;;;;;;;;;;;;;22.26;45.80;100911.90;103847;1286;61571;-83
2023/05/25 08:02:15;;;;;;;;;;;;;;;22.26;45.72;100912.27;103627;1289;60651;-83
2023/05/25 08:04:40;;;;;;;;;;;;;;;22.27;45.76;100909.54;103658;1287;61874;-83
2023/05/25 08:07:06;;;;;;;;;;;;;;;22.27;45.77;100909.55;103379;1289;60581;-85
2023/05/25 08:09:31;;;;;;;;;;;;;;;22.27;45.69;100911.00;103598;1289;60574;-82
2023/05/25 08:12:00;;;;;;;;;;;;;;;22.26;45.64;100911.23;103538;1286;60681;-83
2023/05/25 08:14:26;;;;;;;;;;;;;;;22.25;45.78;100913.08;103498;1292;73488;-83
2023/05/25 08:16:51;;;;;;;;;;;;;;;22.25;45.71;100912.76;103471;1286;60513;-83
2023/05/25 08:19:17;;;;;;;;;;;;;;;22.25;45.75;100914.56;103945;1286;60938;-83
2023/05/25 08:21:43;;;;;;;;;;;;;;;22.25;45.68;100910.60;103856;1286;60589;-83
2023/05/25 08:24:08;;;;;;;;;;;;;;;22.25;45.72;100909.87;103608;1286;60600;-83
2023/05/25 08:26:35;;;;;;;;;;;;;;;22.25;45.75;100908.45;103503;1292;60651;-83
2023/05/25 08:29:02;;;;;;;;;;;;;;;22.25;45.67;100906.48;103449;1290;60658;-84
2023/05/25 08:31:28;;;;;;;;;;;;;;;22.25;45.75;100902.66;103790;1286;60389;-83
2023/05/25 08:33:54;;;;;;;;;;;;;;;22.25;45.78;100903.59;103595;1290;61188;-83
2023/05/25 08:36:19;;;;;;;;;;;;;;;22.25;45.72;100904.30;103850;1286;60574;-83
2023/05/25 08:38:45;;;;;;;;;;;;;;;22.25;45.64;100899.46;103795;1286;60976;-83
2023/05/25 08:41:12;;;;;;;;;;;;;;;22.26;45.77;100901.41;103654;1286;60546;-83
2023/05/25 08:43:37;;;;;;;;;;;;;;;22.25;45.70;100901.22;103665;1286;60613;-83
2023/05/25 08:46:04;;;;;;;;;;;;;;;22.26;45.72;100899.61;103714;1289;60987;-83
2023/05/25 08:48:29;;;;;;;;;;;;;;;22.25;45.80;100894.97;103576;1292;60558;-83
2023/05/25 08:50:55;;;;;;;;;;;;;;;22.26;45.72;100897.09;103580;1289;60565;-83
2023/05/25 08:53:21;;;;;;;;;;;;;;;22.26;45.71;100897.63;103812;1286;60507;-83
2023/05/25 08:55:46;;;;;;;;;;;;;;;22.26;45.76;100894.94;103614;1290;60585;-82
2023/05/25 08:58:22;;;;;;;;;;;;;;;22.26;45.76;100899.39;103888;1291;60584;-83
2023/05/25 09:00:55;;;;;;;;;;;;;;;22.26;45.64;100897.04;103583;1288;73760;-82
2023/05/25 09:03:24;;;;;;;;;;;;;;;22.26;45.64;100891.33;103658;1290;60940;-83
2023/05/25 09:05:49;;;;;;;;;;;;;;;22.26;45.63;100884.52;103688;1291;60972;-83
2023/05/25 09:08:15;;;;;;;;;;;;;;;22.27;45.75;100887.87;103500;1286;60581;-83
2023/05/25 09:10:40;;;;;;;;;;;;;;;22.26;45.74;100885.20;103478;1288;60643;-82
2023/05/25 09:13:06;;;;;;;;;;;;;;;22.27;45.75;100883.55;103330;1286;61692;-83
2023/05/25 09:15:31;;;;;;;;;;;;;;;22.27;45.70;100882.47;103474;1286;60638;-84
2023/05/25 09:17:57;;;;;;;;;;;;;;;22.27;45.64;100882.64;103374;1294;61004;-82
2023/05/25 09:20:22;;;;;;;;;;;;;;;22.27;45.65;100883.18;103597;1286;60565;-83
2023/05/25 09:22:48;;;;;;;;;;;;;;;22.27;45.65;100877.23;103393;1286;60596;-83
2023/05/25 09:25:14;;;;;;;;;;;;;;;22.27;45.73;100878.14;103471;1286;60523;-84
2023/05/25 09:27:40;;;;;;;;;;;;;;;22.27;45.70;100876.52;103501;1289;60558;-83
2023/05/25 09:30:06;;;;;;;;;;;;;;;22.27;45.64;100874.17;103219;1291;60602;-82
2023/05/25 09:32:31;;;;;;;;;;;;;;;22.27;45.64;100873.64;103011;1292;72338;-84
2023/05/25 09:35:10;;;;;;;;;;;;;;;22.28;45.63;100869.14;103243;1291;60610;-84
2023/05/25 09:37:36;;;;;;;;;;;;;;;22.28;45.67;100867.90;103160;1292;60483;-83
2023/05/25 09:40:02;;;;;;;;;;;;;;;22.28;45.64;100868.59;103208;1292;60569;-83
2023/05/25 09:42:27;;;;;;;;;;;;;;;22.28;45.74;100868.25;103182;1292;60660;-82
2023/05/25 09:44:54;;;;;;;;;;;;;;;22.28;45.71;100866.83;103096;1297;60639;-83
2023/05/25 09:47:19;;;;;;;;;;;;;;;22.27;45.72;100863.80;103081;1292;60672;-83
2023/05/25 09:49:48;;;;;;;;;;;;;;;22.27;45.72;100855.90;103213;1291;60464;-83
2023/05/25 09:52:15;;;;;;;;;;;;;;;22.28;45.69;100847.27;103193;1292;71502;-83
2023/05/25 09:54:46;;;;;;;;;;;;;;;22.28;45.64;100847.59;103034;1297;61028;-83
2023/05/25 09:57:13;;;;;;;;;;;;;;;22.29;45.61;100842.02;103016;1292;60533;-83
2023/05/25 09:59:39;;;;;;;;;;;;;;;22.29;45.69;100837.38;103059;1292;60558;-84
2023/05/25 10:02:28;;;;;;;;;;;;;;;22.28;45.69;100836.48;103075;1291;60670;-83
2023/05/25 10:04:54;;;;;;;;;;;;;;;22.29;45.64;100840.59;102961;1295;73753;-83
2023/05/25 10:07:19;;;;;;;;;;;;;;;22.29;45.69;100835.03;102969;1295;60597;-83
2023/05/25 10:09:45;;;;;;;;;;;;;;;22.29;45.69;100832.70;103004;1295;60581;-82
2023/05/25 10:12:10;;;;;;;;;;;;;;;22.29;45.67;100829.48;103068;1298;61767;-83
2023/05/25 10:14:36;;;;;;;;;;;;;;;22.29;45.72;100829.98;102956;1300;60742;-83
2023/05/25 10:17:02;;;;;;;;;;;;;;;22.30;45.72;100824.05;103043;1297;74959;-82
2023/05/25 10:19:28;;;;;;;;;;;;;;;22.29;45.76;100820.65;103045;1295;60633;-83
2023/05/25 10:22:04;;;;;;;;;;;;;;;22.30;45.62;100815.05;103203;1294;60511;-82
2023/05/25 10:24:31;;;;;;;;;;;;;;;22.30;45.70;100809.85;103221;1298;73769;-82
2023/05/25 10:26:57;;;;;;;;;;;;;;;22.31;45.67;100807.66;103036;1294;74921;-82
2023/05/25 10:29:23;;;;;;;;;;;;;;;22.30;45.71;100804.42;102911;1295;60566;-82
2023/05/25 10:31:49;;;;;;;;;;;;;;;22.30;45.74;100803.88;102948;1295;60584;-83
2023/05/25 10:34:15;;;;;;;;;;;;;;;22.31;45.66;100797.41;103040;1298;60620;-84
2023/05/25 10:36:41;;;;;;;;;;;;;;;22.31;45.73;100794.35;102816;1295;61636;-84
2023/05/25 10:39:07;;;;;;;;;;;;;;;22.32;45.71;100795.36;102738;1295;60661;-84
2023/05/25 10:41:33;;;;;;;;;;;;;;;22.32;45.77;100790.17;103034;1298;61732;-83
2023/05/25 10:43:59;;;;;;;;;;;;;;;22.32;45.67;100785.48;103503;1286;60702;-83
2023/05/25 10:46:25;;;;;;;;;;;;;;;22.32;45.69;100780.28;103508;1289;60619;-83
2023/05/25 10:48:51;;;;;;;;;;;;;;;22.32;45.60;100780.48;103663;1286;74621;-83
2023/05/25 10:51:20;;;;;;;;;;;;;;;22.32;45.63;100776.18;103566;1290;60956;-84
2023/05/25 10:53:46;;;;;;;;;;;;;;;22.32;45.64;100771.48;103642;1291;61152;-84
2023/05/25 10:56:12;;;;;;;;;;;;;;;22.33;45.54;100761.77;103501;1289;61871;-82
2023/05/25 10:58:45;;;;;;;;;;;;;;;22.33;45.67;100757.81;103576;1286;60500;-83
2023/05/25 11:01:13;;;;;;;;;;;;;;;22.32;45.64;100756.92;103459;1289;60798;-84
2023/05/25 11:03:57;;;;;;;;;;;;;;;22.33;45.57;100757.08;103716;1287;60578;-83
2023/05/25 11:06:43;;;;;;;;;;;;;;;22.33;45.43;100756.00;103758;1286;72284;-82
2023/05/25 11:09:24;;;;;;;;;;;;;;;22.33;45.50;100761.21;103627;1286;74779;-82
2023/05/25 11:11:51;;;;;;;;;;;;;;;22.33;45.75;100761.17;103719;1289;60469;-82
2023/05/25 11:14:22;;;;;;;;;;;;;;;22.33;45.60;100757.98;103973;1286;60421;-83
2023/05/25 11:17:13;;;;;;;;;;;;;;;22.33;45.68;100759.40;104087;1287;72521;-83
2023/05/25 11:19:42;;;;;;;;;;;;;;;22.33;45.62;100760.98;103510;1286;74363;-83
2023/05/25 11:22:20;;;;;;;;;;;;;;;22.34;45.69;100764.02;103727;1286;60578;-82
2023/05/25 11:24:46;;;;;;;;;;;;;;;22.33;45.56;100774.66;103593;1286;60540;-83
2023/05/25 11:27:12;;;;;;;;;;;;;;;22.33;45.63;100776.24;103473;1289;60955;-83
2023/05/25 11:29:38;;;;;;;;;;;;;;;22.33;45.57;100794.73;103475;1292;60654;-83
2023/05/25 11:32:04;;;;;;;;;;;;;;;22.33;45.62;100829.34;103402;1292;60805;-82
2023/05/25 11:34:30;;;;;;;;;;;;;;;22.33;45.59;100815.20;103438;1286;61175;-84
2023/05/25 11:37:02;;;;;;;;;;;;;;;22.32;45.57;100815.41;103621;1292;60491;-83
2023/05/25 11:39:29;;;;;;;;;;;;;;;22.32;45.53;100812.02;103354;1289;73761;-83
2023/05/25 11:41:57;;;;;;;;;;;;;;;22.32;45.38;100808.27;103701;1289;60501;-82
2023/05/25 11:44:29;;;;;;;;;;;;;;;22.31;45.59;100802.40;103440;1292;60960;-83
2023/05/25 11:46:56;;;;;;;;;;;;;;;22.31;45.62;100795.77;103322;1290;73545;-84
2023/05/25 11:49:23;;;;;;;;;;;;;;;22.31;45.59;100795.98;103427;1295;60590;-84
2023/05/25 11:51:48;;;;;;;;;;;;;;;22.31;45.60;100787.20;103596;1292;60965;-82
2023/05/25 11:54:27;;;;;;;;;;;;;;;22.30;45.45;100783.11;103329;1290;60577;-83
2023/05/25 11:56:55;;;;;;;;;;;;;;;22.29;45.65;100783.35;103481;1289;72431;-84
2023/05/25 11:59:21;;;;;;;;;;;;;;;22.30;45.58;100783.89;103455;1289;74663;-83
2023/05/25 12:01:56;;;;;;;;;;;;;;;22.29;45.59;100781.94;103490;1289;60680;-82
2023/05/25 12:04:21;;;;;;;;;;;;;;;22.28;45.60;100782.17;103545;1289;60666;-83
2023/05/25 12:06:48;;;;;;;;;;;;;;;22.28;45.63;100779.17;103421;1292;60500;-83
2023/05/25 12:09:17;;;;;;;;;;;;;;;22.27;45.65;100774.67;103628;1288;61705;-83
2023/05/25 12:11:44;;;;;;;;;;;;;;;22.28;45.72;100774.67;103984;1288;61110;-82
2023/05/25 12:14:10;;;;;;;;;;;;;;;22.27;45.79;100768.61;103570;1291;60948;-83
2023/05/25 12:16:39;;;;;;;;;;;;;;;22.27;45.70;100765.23;103646;1288;60613;-83
2023/05/25 12:19:06;;;;;;;;;;;;;;;22.27;45.75;100758.06;103494;1290;74821;-82
2023/05/25 12:21:31;;;;;;;;;;;;;;;22.27;45.88;100754.46;103335;1290;61303;-83
2023/05/25 12:23:57;;;;;;;;;;;;;;;22.27;45.83;100753.05;103442;1289;60712;-83